sensor_id;sensor_type;location;lat;lon;timestamp;temperature;humidity
40756;DHT22;26461;45.630;9.418;2022-09-09T00:05:27;24.00;99.90
40756;DHT22;26461;45.630;9.418;2022-09-09T00:08:54;24.00;99.90
40756;DHT22;26461;45.630;9.418;2022-09-09T00:12:15;24.10;99.90
40756;DHT22;26461;45.630;9.418;2022-09-09T00:15:41;24.10;99.90
40756;DHT22;26461;45.630;9.418;2022-09-09T00:19:22;24.10;99.80
40756;DHT22;26461;45.630;9.418;2022-09-09T00:22:32;24.20;99.90
40756;DHT22;26461;45.630;9.418;2022-09-09T00:29:20;24.10;99.60
40756;DHT22;26461;45.630;9.418;2022-09-09T00:32:33;24.10;99.60
40756;DHT22;26461;45.630;9.418;2022-09-09T00:35:49;24.10;99.50
40756;DHT22;26461;45.630;9.418;2022-09-09T00:39:03;24.10;99.40
40756;DHT22;26461;45.630;9.418;2022-09-09T00:42:25;24.10;99.40
40756;DHT22;26461;45.630;9.418;2022-09-09T00:52:39;24.00;99.50
40756;DHT22;26461;45.630;9.418;2022-09-09T01:06:15;23.90;99.80
40756;DHT22;26461;45.630;9.418;2022-09-09T01:12:52;23.80;99.80
40756;DHT22;26461;45.630;9.418;2022-09-09T01:16:08;23.80;99.80
40756;DHT22;26461;45.630;9.418;2022-09-09T01:19:33;23.80;99.90
40756;DHT22;26461;45.630;9.418;2022-09-09T01:27:08;23.60;99.90
40756;DHT22;26461;45.630;9.418;2022-09-09T01:30:19;23.60;99.90
40756;DHT22;26461;45.630;9.418;2022-09-09T01:33:30;23.60;99.90
40756;DHT22;26461;45.630;9.418;2022-09-09T01:39:57;23.50;99.90
40756;DHT22;26461;45.630;9.418;2022-09-09T01:43:10;23.50;99.90
40756;DHT22;26461;45.630;9.418;2022-09-09T01:46:22;23.40;99.90
40756;DHT22;26461;45.630;9.418;2022-09-09T01:49:32;23.40;99.90
40756;DHT22;26461;45.630;9.418;2022-09-09T01:52:47;23.30;99.90
40756;DHT22;26461;45.630;9.418;2022-09-09T01:56:08;23.30;99.90
40756;DHT22;26461;45.630;9.418;2022-09-09T02:03:03;23.20;99.90
40756;DHT22;26461;45.630;9.418;2022-09-09T02:06:26;23.20;99.90
40756;DHT22;26461;45.630;9.418;2022-09-09T02:09:52;23.30;99.90
40756;DHT22;26461;45.630;9.418;2022-09-09T02:13:12;23.20;99.90
40756;DHT22;26461;45.630;9.418;2022-09-09T02:16:42;23.20;99.90
40756;DHT22;26461;45.630;9.418;2022-09-09T02:20:05;23.20;99.90
40756;DHT22;26461;45.630;9.418;2022-09-09T02:23:21;23.20;99.90
40756;DHT22;26461;45.630;9.418;2022-09-09T02:26:34;23.20;99.90
40756;DHT22;26461;45.630;9.418;2022-09-09T02:29:49;23.20;99.90
40756;DHT22;26461;45.630;9.418;2022-09-09T02:33:13;23.20;99.90
40756;DHT22;26461;45.630;9.418;2022-09-09T02:36:30;23.20;99.90
40756;DHT22;26461;45.630;9.418;2022-09-09T02:39:43;23.20;99.90
40756;DHT22;26461;45.630;9.418;2022-09-09T02:42:57;23.30;99.90
40756;DHT22;26461;45.630;9.418;2022-09-09T02:46:05;23.20;99.90
40756;DHT22;26461;45.630;9.418;2022-09-09T02:53:15;23.30;99.90
40756;DHT22;26461;45.630;9.418;2022-09-09T02:56:27;23.30;99.90
40756;DHT22;26461;45.630;9.418;2022-09-09T02:59:40;23.20;99.90
40756;DHT22;26461;45.630;9.418;2022-09-09T03:02:53;23.20;99.90
40756;DHT22;26461;45.630;9.418;2022-09-09T03:06:04;23.20;99.90
40756;DHT22;26461;45.630;9.418;2022-09-09T03:09:15;23.20;99.90
40756;DHT22;26461;45.630;9.418;2022-09-09T03:12:26;23.30;99.90
40756;DHT22;26461;45.630;9.418;2022-09-09T03:15:36;23.20;99.90
40756;DHT22;26461;45.630;9.418;2022-09-09T03:18:52;23.20;99.90
40756;DHT22;26461;45.630;9.418;2022-09-09T03:22:01;23.20;99.90
40756;DHT22;26461;45.630;9.418;2022-09-09T03:25:12;23.20;99.90
40756;DHT22;26461;45.630;9.418;2022-09-09T03:28:24;23.20;99.90
40756;DHT22;26461;45.630;9.418;2022-09-09T03:31:40;23.10;99.90
40756;DHT22;26461;45.630;9.418;2022-09-09T03:34:45;23.10;99.90
40756;DHT22;26461;45.630;9.418;2022-09-09T03:37:57;23.10;99.90
40756;DHT22;26461;45.630;9.418;2022-09-09T03:41:03;23.10;99.90
40756;DHT22;26461;45.630;9.418;2022-09-09T03:44:08;23.00;99.90
40756;DHT22;26461;45.630;9.418;2022-09-09T03:47:20;23.00;99.90
40756;DHT22;26461;45.630;9.418;2022-09-09T03:50:37;23.10;99.90
40756;DHT22;26461;45.630;9.418;2022-09-09T03:53:47;23.00;99.90
40756;DHT22;26461;45.630;9.418;2022-09-09T03:56:57;23.10;99.90
40756;DHT22;26461;45.630;9.418;2022-09-09T04:00:08;23.10;99.90
40756;DHT22;26461;45.630;9.418;2022-09-09T04:03:28;23.10;99.90
40756;DHT22;26461;45.630;9.418;2022-09-09T04:06:37;23.10;99.90
40756;DHT22;26461;45.630;9.418;2022-09-09T04:09:47;23.10;99.90
40756;DHT22;26461;45.630;9.418;2022-09-09T04:12:52;23.10;99.90
40756;DHT22;26461;45.630;9.418;2022-09-09T04:16:03;23.00;99.90
40756;DHT22;26461;45.630;9.418;2022-09-09T04:19:15;23.00;99.90
40756;DHT22;26461;45.630;9.418;2022-09-09T04:22:55;23.00;99.90
40756;DHT22;26461;45.630;9.418;2022-09-09T04:26:07;22.90;99.90
40756;DHT22;26461;45.630;9.418;2022-09-09T04:29:22;22.90;99.90
40756;DHT22;26461;45.630;9.418;2022-09-09T04:32:34;22.80;99.90
40756;DHT22;26461;45.630;9.418;2022-09-09T04:35:47;22.70;99.90
40756;DHT22;26461;45.630;9.418;2022-09-09T04:39:00;22.50;99.90
40756;DHT22;26461;45.630;9.418;2022-09-09T04:42:11;22.50;99.90
40756;DHT22;26461;45.630;9.418;2022-09-09T04:45:21;22.40;99.90
40756;DHT22;26461;45.630;9.418;2022-09-09T04:48:32;22.50;99.90
40756;DHT22;26461;45.630;9.418;2022-09-09T04:51:43;22.50;99.90
40756;DHT22;26461;45.630;9.418;2022-09-09T04:54:55;22.50;99.90
40756;DHT22;26461;45.630;9.418;2022-09-09T04:58:06;22.50;99.90
40756;DHT22;26461;45.630;9.418;2022-09-09T05:01:19;22.50;99.90
40756;DHT22;26461;45.630;9.418;2022-09-09T05:04:31;22.50;99.90
40756;DHT22;26461;45.630;9.418;2022-09-09T05:07:43;22.40;99.90
40756;DHT22;26461;45.630;9.418;2022-09-09T05:10:53;22.30;99.90
40756;DHT22;26461;45.630;9.418;2022-09-09T05:14:03;22.30;99.90
40756;DHT22;26461;45.630;9.418;2022-09-09T05:17:13;22.30;99.90
40756;DHT22;26461;45.630;9.418;2022-09-09T05:20:25;22.20;99.90
40756;DHT22;26461;45.630;9.418;2022-09-09T05:23:35;22.20;99.90
40756;DHT22;26461;45.630;9.418;2022-09-09T05:26:46;22.20;99.90
40756;DHT22;26461;45.630;9.418;2022-09-09T05:29:58;22.20;99.90
40756;DHT22;26461;45.630;9.418;2022-09-09T05:33:09;22.20;99.90
40756;DHT22;26461;45.630;9.418;2022-09-09T05:36:21;22.20;99.90
40756;DHT22;26461;45.630;9.418;2022-09-09T05:39:31;22.20;99.90
40756;DHT22;26461;45.630;9.418;2022-09-09T05:42:43;22.10;99.90
40756;DHT22;26461;45.630;9.418;2022-09-09T05:49:10;22.00;99.90
40756;DHT22;26461;45.630;9.418;2022-09-09T05:52:21;21.90;99.90
40756;DHT22;26461;45.630;9.418;2022-09-09T05:55:33;21.90;99.90
40756;DHT22;26461;45.630;9.418;2022-09-09T05:58:39;21.90;99.90
40756;DHT22;26461;45.630;9.418;2022-09-09T06:01:49;21.90;99.90
40756;DHT22;26461;45.630;9.418;2022-09-09T06:05:08;21.80;99.90
40756;DHT22;26461;45.630;9.418;2022-09-09T06:08:20;21.80;99.90
40756;DHT22;26461;45.630;9.418;2022-09-09T06:11:30;21.60;99.90
40756;DHT22;26461;45.630;9.418;2022-09-09T06:14:41;21.50;99.90
40756;DHT22;26461;45.630;9.418;2022-09-09T06:17:55;21.50;99.90
40756;DHT22;26461;45.630;9.418;2022-09-09T06:21:08;21.50;99.90
40756;DHT22;26461;45.630;9.418;2022-09-09T06:24:19;21.50;99.90
40756;DHT22;26461;45.630;9.418;2022-09-09T06:27:27;21.40;99.90
40756;DHT22;26461;45.630;9.418;2022-09-09T06:30:32;21.50;99.90
40756;DHT22;26461;45.630;9.418;2022-09-09T06:33:43;21.40;99.90
40756;DHT22;26461;45.630;9.418;2022-09-09T06:36:54;21.40;99.90
40756;DHT22;26461;45.630;9.418;2022-09-09T06:40:15;21.40;99.90
40756;DHT22;26461;45.630;9.418;2022-09-09T06:43:26;21.30;99.90
40756;DHT22;26461;45.630;9.418;2022-09-09T06:46:37;21.40;99.90
40756;DHT22;26461;45.630;9.418;2022-09-09T06:49:53;21.40;99.90
40756;DHT22;26461;45.630;9.418;2022-09-09T06:53:03;21.40;99.90
40756;DHT22;26461;45.630;9.418;2022-09-09T06:59:27;21.50;99.90
40756;DHT22;26461;45.630;9.418;2022-09-09T07:02:37;21.60;99.90
40756;DHT22;26461;45.630;9.418;2022-09-09T07:05:54;21.60;99.90
40756;DHT22;26461;45.630;9.418;2022-09-09T07:09:08;21.70;99.90
40756;DHT22;26461;45.630;9.418;2022-09-09T07:12:20;21.70;99.90
40756;DHT22;26461;45.630;9.418;2022-09-09T07:15:35;21.80;99.90
40756;DHT22;26461;45.630;9.418;2022-09-09T07:18:45;21.80;99.90
40756;DHT22;26461;45.630;9.418;2022-09-09T07:21:56;21.90;99.90
40756;DHT22;26461;45.630;9.418;2022-09-09T07:25:08;21.90;99.90
40756;DHT22;26461;45.630;9.418;2022-09-09T07:28:19;21.90;99.90
40756;DHT22;26461;45.630;9.418;2022-09-09T07:31:32;22.00;99.90
40756;DHT22;26461;45.630;9.418;2022-09-09T07:34:46;22.00;99.90
40756;DHT22;26461;45.630;9.418;2022-09-09T07:38:01;22.10;99.90
40756;DHT22;26461;45.630;9.418;2022-09-09T07:41:17;22.10;99.90
40756;DHT22;26461;45.630;9.418;2022-09-09T07:44:28;22.20;99.90
40756;DHT22;26461;45.630;9.418;2022-09-09T07:47:47;22.20;99.90
40756;DHT22;26461;45.630;9.418;2022-09-09T07:51:08;22.30;99.90
40756;DHT22;26461;45.630;9.418;2022-09-09T07:54:21;22.40;99.90
40756;DHT22;26461;45.630;9.418;2022-09-09T07:57:29;22.50;99.90
40756;DHT22;26461;45.630;9.418;2022-09-09T08:00:41;22.60;99.90
40756;DHT22;26461;45.630;9.418;2022-09-09T08:03:55;22.60;99.90
40756;DHT22;26461;45.630;9.418;2022-09-09T08:07:07;22.70;99.90
40756;DHT22;26461;45.630;9.418;2022-09-09T08:10:24;22.70;99.90
40756;DHT22;26461;45.630;9.418;2022-09-09T08:13:36;22.80;99.90
40756;DHT22;26461;45.630;9.418;2022-09-09T08:16:48;22.80;99.90
40756;DHT22;26461;45.630;9.418;2022-09-09T08:20:00;22.90;99.90
40756;DHT22;26461;45.630;9.418;2022-09-09T08:23:18;23.00;99.90
40756;DHT22;26461;45.630;9.418;2022-09-09T08:26:30;23.00;99.90
40756;DHT22;26461;45.630;9.418;2022-09-09T08:29:41;23.00;99.90
40756;DHT22;26461;45.630;9.418;2022-09-09T08:32:51;22.30;99.90
40756;DHT22;26461;45.630;9.418;2022-09-09T08:36:01;23.00;99.90
40756;DHT22;26461;45.630;9.418;2022-09-09T08:39:14;23.00;99.90
40756;DHT22;26461;45.630;9.418;2022-09-09T08:42:35;23.10;99.90
40756;DHT22;26461;45.630;9.418;2022-09-09T08:53:02;23.20;99.90
40756;DHT22;26461;45.630;9.418;2022-09-09T08:56:16;23.20;99.90
40756;DHT22;26461;45.630;9.418;2022-09-09T08:59:34;23.20;99.90
40756;DHT22;26461;45.630;9.418;2022-09-09T09:09:51;23.40;99.90
40756;DHT22;26461;45.630;9.418;2022-09-09T09:13:03;23.40;99.70
40756;DHT22;26461;45.630;9.418;2022-09-09T09:16:38;23.50;99.50
40756;DHT22;26461;45.630;9.418;2022-09-09T09:19:49;23.50;99.20
40756;DHT22;26461;45.630;9.418;2022-09-09T09:23:02;23.50;99.30
40756;DHT22;26461;45.630;9.418;2022-09-09T09:26:13;23.60;99.00
40756;DHT22;26461;45.630;9.418;2022-09-09T09:29:19;23.60;99.20
40756;DHT22;26461;45.630;9.418;2022-09-09T09:32:33;23.70;99.20
40756;DHT22;26461;45.630;9.418;2022-09-09T09:35:45;23.80;99.20
40756;DHT22;26461;45.630;9.418;2022-09-09T09:39:01;23.80;99.00
40756;DHT22;26461;45.630;9.418;2022-09-09T09:42:19;23.90;98.90
40756;DHT22;26461;45.630;9.418;2022-09-09T09:45:35;23.90;98.50
40756;DHT22;26461;45.630;9.418;2022-09-09T09:49:03;24.00;98.70
40756;DHT22;26461;45.630;9.418;2022-09-09T09:52:22;24.00;98.40
40756;DHT22;26461;45.630;9.418;2022-09-09T09:55:35;24.10;98.10
40756;DHT22;26461;45.630;9.418;2022-09-09T09:58:51;24.20;98.00
40756;DHT22;26461;45.630;9.418;2022-09-09T10:05:28;24.40;97.00
40756;DHT22;26461;45.630;9.418;2022-09-09T10:08:46;24.40;96.60
40756;DHT22;26461;45.630;9.418;2022-09-09T10:12:32;24.50;96.50
40756;DHT22;26461;45.630;9.418;2022-09-09T10:22:32;24.60;96.20
40756;DHT22;26461;45.630;9.418;2022-09-09T10:29:32;24.60;96.30
40756;DHT22;26461;45.630;9.418;2022-09-09T10:36:19;24.60;96.10
40756;DHT22;26461;45.630;9.418;2022-09-09T10:39:38;24.60;95.50
40756;DHT22;26461;45.630;9.418;2022-09-09T10:42:53;24.60;95.40
40756;DHT22;26461;45.630;9.418;2022-09-09T10:53:37;24.70;94.70
40756;DHT22;26461;45.630;9.418;2022-09-09T10:57:36;24.40;94.50
40756;DHT22;26461;45.630;9.418;2022-09-09T11:00:55;24.80;94.20
40756;DHT22;26461;45.630;9.418;2022-09-09T11:04:23;24.80;93.90
40756;DHT22;26461;45.630;9.418;2022-09-09T11:07:49;24.80;93.90
40756;DHT22;26461;45.630;9.418;2022-09-09T11:11:04;24.90;93.70
40756;DHT22;26461;45.630;9.418;2022-09-09T11:14:30;24.90;93.70
40756;DHT22;26461;45.630;9.418;2022-09-09T11:17:45;24.90;93.20
40756;DHT22;26461;45.630;9.418;2022-09-09T11:21:01;25.00;93.10
40756;DHT22;26461;45.630;9.418;2022-09-09T11:24:36;25.00;92.90
40756;DHT22;26461;45.630;9.418;2022-09-09T11:35:09;25.10;92.60
40756;DHT22;26461;45.630;9.418;2022-09-09T11:38:28;25.10;92.70
40756;DHT22;26461;45.630;9.418;2022-09-09T11:41:39;25.20;92.50
40756;DHT22;26461;45.630;9.418;2022-09-09T11:44:50;25.20;92.20
40756;DHT22;26461;45.630;9.418;2022-09-09T11:48:02;25.30;92.10
40756;DHT22;26461;45.630;9.418;2022-09-09T11:54:32;25.40;91.90
40756;DHT22;26461;45.630;9.418;2022-09-09T11:57:42;25.40;91.70
40756;DHT22;26461;45.630;9.418;2022-09-09T12:00:52;25.50;91.90
40756;DHT22;26461;45.630;9.418;2022-09-09T12:04:12;25.50;91.80
40756;DHT22;26461;45.630;9.418;2022-09-09T12:07:33;25.50;91.60
40756;DHT22;26461;45.630;9.418;2022-09-09T12:10:55;25.60;91.50
40756;DHT22;26461;45.630;9.418;2022-09-09T12:17:53;25.70;90.90
40756;DHT22;26461;45.630;9.418;2022-09-09T12:29:35;25.70;90.10
40756;DHT22;26461;45.630;9.418;2022-09-09T12:33:06;25.80;90.00
40756;DHT22;26461;45.630;9.418;2022-09-09T12:36:29;25.80;89.30
40756;DHT22;26461;45.630;9.418;2022-09-09T12:40:33;25.90;89.50
40756;DHT22;26461;45.630;9.418;2022-09-09T12:43:25;26.00;89.70
40756;DHT22;26461;45.630;9.418;2022-09-09T12:46:39;26.10;88.70
40756;DHT22;26461;45.630;9.418;2022-09-09T12:49:50;26.10;88.40
40756;DHT22;26461;45.630;9.418;2022-09-09T12:53:06;26.20;88.10
40756;DHT22;26461;45.630;9.418;2022-09-09T12:56:20;26.30;87.60
40756;DHT22;26461;45.630;9.418;2022-09-09T12:59:41;26.40;86.70
40756;DHT22;26461;45.630;9.418;2022-09-09T13:02:54;26.40;86.60
40756;DHT22;26461;45.630;9.418;2022-09-09T13:06:12;26.50;86.60
40756;DHT22;26461;45.630;9.418;2022-09-09T13:09:23;26.60;86.40
40756;DHT22;26461;45.630;9.418;2022-09-09T13:12:33;26.70;85.80
40756;DHT22;26461;45.630;9.418;2022-09-09T13:15:58;26.80;85.10
40756;DHT22;26461;45.630;9.418;2022-09-09T13:19:14;26.90;86.10
40756;DHT22;26461;45.630;9.418;2022-09-09T13:22:34;27.10;86.00
40756;DHT22;26461;45.630;9.418;2022-09-09T13:26:22;27.20;85.60
40756;DHT22;26461;45.630;9.418;2022-09-09T13:29:32;27.30;85.30
40756;DHT22;26461;45.630;9.418;2022-09-09T13:32:42;27.40;85.00
40756;DHT22;26461;45.630;9.418;2022-09-09T13:39:17;27.70;85.10
40756;DHT22;26461;45.630;9.418;2022-09-09T13:42:32;27.80;83.70
40756;DHT22;26461;45.630;9.418;2022-09-09T13:45:55;27.90;81.80
40756;DHT22;26461;45.630;9.418;2022-09-09T13:52:19;28.10;81.30
40756;DHT22;26461;45.630;9.418;2022-09-09T13:55:29;28.20;81.50
40756;DHT22;26461;45.630;9.418;2022-09-09T13:58:40;28.30;81.40
40756;DHT22;26461;45.630;9.418;2022-09-09T14:01:50;28.40;79.60
40756;DHT22;26461;45.630;9.418;2022-09-09T14:05:02;28.50;77.80
40756;DHT22;26461;45.630;9.418;2022-09-09T14:08:20;28.60;78.70
40756;DHT22;26461;45.630;9.418;2022-09-09T14:11:31;28.70;79.10
40756;DHT22;26461;45.630;9.418;2022-09-09T14:14:41;28.80;77.20
40756;DHT22;26461;45.630;9.418;2022-09-09T14:17:51;28.90;75.60
40756;DHT22;26461;45.630;9.418;2022-09-09T14:21:02;29.00;74.90
40756;DHT22;26461;45.630;9.418;2022-09-09T14:24:12;29.10;73.40
40756;DHT22;26461;45.630;9.418;2022-09-09T14:27:21;29.10;73.90
40756;DHT22;26461;45.630;9.418;2022-09-09T14:30:32;29.20;72.40
40756;DHT22;26461;45.630;9.418;2022-09-09T14:33:41;29.30;72.00
40756;DHT22;26461;45.630;9.418;2022-09-09T14:36:51;29.30;71.90
40756;DHT22;26461;45.630;9.418;2022-09-09T14:40:01;29.50;71.30
40756;DHT22;26461;45.630;9.418;2022-09-09T14:43:11;29.60;70.70
40756;DHT22;26461;45.630;9.418;2022-09-09T14:46:22;29.70;69.40
40756;DHT22;26461;45.630;9.418;2022-09-09T14:49:31;29.80;68.70
40756;DHT22;26461;45.630;9.418;2022-09-09T14:52:41;29.90;68.60
40756;DHT22;26461;45.630;9.418;2022-09-09T14:55:51;30.10;69.40
40756;DHT22;26461;45.630;9.418;2022-09-09T14:59:01;30.30;68.00
40756;DHT22;26461;45.630;9.418;2022-09-09T15:02:11;30.40;68.20
40756;DHT22;26461;45.630;9.418;2022-09-09T15:05:23;30.50;66.60
40756;DHT22;26461;45.630;9.418;2022-09-09T15:08:35;30.50;66.40
40756;DHT22;26461;45.630;9.418;2022-09-09T15:11:45;30.70;65.60
40756;DHT22;26461;45.630;9.418;2022-09-09T15:14:55;30.70;63.70
40756;DHT22;26461;45.630;9.418;2022-09-09T15:18:05;30.80;63.50
40756;DHT22;26461;45.630;9.418;2022-09-09T15:21:19;30.90;63.40
40756;DHT22;26461;45.630;9.418;2022-09-09T15:24:29;31.00;62.80
40756;DHT22;26461;45.630;9.418;2022-09-09T15:27:39;31.20;63.80
40756;DHT22;26461;45.630;9.418;2022-09-09T15:30:50;31.30;63.10
40756;DHT22;26461;45.630;9.418;2022-09-09T15:34:03;31.40;61.80
40756;DHT22;26461;45.630;9.418;2022-09-09T15:37:14;31.50;62.60
40756;DHT22;26461;45.630;9.418;2022-09-09T15:40:24;31.60;63.20
40756;DHT22;26461;45.630;9.418;2022-09-09T15:43:28;31.80;62.70
40756;DHT22;26461;45.630;9.418;2022-09-09T15:46:40;31.80;61.80
40756;DHT22;26461;45.630;9.418;2022-09-09T15:49:50;32.10;62.40
40756;DHT22;26461;45.630;9.418;2022-09-09T15:53:00;32.20;61.90
40756;DHT22;26461;45.630;9.418;2022-09-09T15:56:10;32.30;61.00
40756;DHT22;26461;45.630;9.418;2022-09-09T15:59:20;32.50;60.90
40756;DHT22;26461;45.630;9.418;2022-09-09T16:02:30;32.60;59.80
40756;DHT22;26461;45.630;9.418;2022-09-09T16:05:40;32.80;59.60
40756;DHT22;26461;45.630;9.418;2022-09-09T16:08:53;32.90;59.40
40756;DHT22;26461;45.630;9.418;2022-09-09T16:12:04;33.00;59.20
40756;DHT22;26461;45.630;9.418;2022-09-09T16:15:20;33.10;58.90
40756;DHT22;26461;45.630;9.418;2022-09-09T16:18:38;33.20;58.60
40756;DHT22;26461;45.630;9.418;2022-09-09T16:21:49;33.30;57.40
40756;DHT22;26461;45.630;9.418;2022-09-09T16:24:59;33.40;57.00
40756;DHT22;26461;45.630;9.418;2022-09-09T16:28:09;33.50;57.00
40756;DHT22;26461;45.630;9.418;2022-09-09T16:31:21;33.60;56.90
40756;DHT22;26461;45.630;9.418;2022-09-09T16:34:31;33.70;56.80
40756;DHT22;26461;45.630;9.418;2022-09-09T16:37:43;33.70;55.50
40756;DHT22;26461;45.630;9.418;2022-09-09T16:41:00;33.70;55.20
40756;DHT22;26461;45.630;9.418;2022-09-09T16:44:13;33.70;55.30
40756;DHT22;26461;45.630;9.418;2022-09-09T16:47:26;33.70;55.30
40756;DHT22;26461;45.630;9.418;2022-09-09T16:50:37;33.60;55.70
40756;DHT22;26461;45.630;9.418;2022-09-09T16:53:48;33.50;55.90
40756;DHT22;26461;45.630;9.418;2022-09-09T16:56:59;33.30;56.60
40756;DHT22;26461;45.630;9.418;2022-09-09T17:00:10;32.90;56.20
40756;DHT22;26461;45.630;9.418;2022-09-09T17:03:20;32.30;56.30
40756;DHT22;26461;45.630;9.418;2022-09-09T17:06:31;31.70;57.80
40756;DHT22;26461;45.630;9.418;2022-09-09T17:09:43;31.40;59.10
40756;DHT22;26461;45.630;9.418;2022-09-09T17:12:54;31.10;59.60
40756;DHT22;26461;45.630;9.418;2022-09-09T17:16:05;31.00;60.30
40756;DHT22;26461;45.630;9.418;2022-09-09T17:19:11;31.00;60.60
40756;DHT22;26461;45.630;9.418;2022-09-09T17:22:22;30.90;60.90
40756;DHT22;26461;45.630;9.418;2022-09-09T17:25:33;30.80;60.90
40756;DHT22;26461;45.630;9.418;2022-09-09T17:28:45;30.70;61.00
40756;DHT22;26461;45.630;9.418;2022-09-09T17:31:55;30.50;60.70
40756;DHT22;26461;45.630;9.418;2022-09-09T17:35:06;30.20;60.90
40756;DHT22;26461;45.630;9.418;2022-09-09T17:38:16;29.90;61.40
40756;DHT22;26461;45.630;9.418;2022-09-09T17:41:37;29.70;62.30
40756;DHT22;26461;45.630;9.418;2022-09-09T17:44:48;29.40;63.00
40756;DHT22;26461;45.630;9.418;2022-09-09T17:47:58;29.20;63.70
40756;DHT22;26461;45.630;9.418;2022-09-09T17:51:12;28.90;64.30
40756;DHT22;26461;45.630;9.418;2022-09-09T17:54:23;28.70;65.00
40756;DHT22;26461;45.630;9.418;2022-09-09T17:57:33;28.50;65.70
40756;DHT22;26461;45.630;9.418;2022-09-09T18:00:43;28.40;66.60
40756;DHT22;26461;45.630;9.418;2022-09-09T18:03:54;28.20;67.10
40756;DHT22;26461;45.630;9.418;2022-09-09T18:07:06;28.00;67.40
40756;DHT22;26461;45.630;9.418;2022-09-09T18:10:16;27.90;68.40
40756;DHT22;26461;45.630;9.418;2022-09-09T18:13:26;27.80;69.20
40756;DHT22;26461;45.630;9.418;2022-09-09T18:16:36;27.70;69.30
40756;DHT22;26461;45.630;9.418;2022-09-09T18:19:48;27.60;70.40
40756;DHT22;26461;45.630;9.418;2022-09-09T18:22:58;27.60;71.80
40756;DHT22;26461;45.630;9.418;2022-09-09T18:26:09;27.40;73.20
40756;DHT22;26461;45.630;9.418;2022-09-09T18:29:21;27.40;74.80
40756;DHT22;26461;45.630;9.418;2022-09-09T18:32:33;27.20;75.90
40756;DHT22;26461;45.630;9.418;2022-09-09T18:35:42;27.20;76.40
40756;DHT22;26461;45.630;9.418;2022-09-09T18:38:54;27.10;75.10
40756;DHT22;26461;45.630;9.418;2022-09-09T18:42:05;27.00;75.00
40756;DHT22;26461;45.630;9.418;2022-09-09T18:45:15;27.00;75.10
40756;DHT22;26461;45.630;9.418;2022-09-09T18:48:26;26.90;75.10
40756;DHT22;26461;45.630;9.418;2022-09-09T18:51:38;26.80;75.10
40756;DHT22;26461;45.630;9.418;2022-09-09T18:54:50;26.80;76.00
40756;DHT22;26461;45.630;9.418;2022-09-09T18:58:00;26.80;76.10
40756;DHT22;26461;45.630;9.418;2022-09-09T19:01:12;26.80;76.90
40756;DHT22;26461;45.630;9.418;2022-09-09T19:04:23;26.70;76.30
40756;DHT22;26461;45.630;9.418;2022-09-09T19:07:35;26.60;76.30
40756;DHT22;26461;45.630;9.418;2022-09-09T19:10:46;26.50;76.60
40756;DHT22;26461;45.630;9.418;2022-09-09T19:13:54;26.40;77.30
40756;DHT22;26461;45.630;9.418;2022-09-09T19:17:04;26.20;78.10
40756;DHT22;26461;45.630;9.418;2022-09-09T19:20:14;26.20;79.30
40756;DHT22;26461;45.630;9.418;2022-09-09T19:23:20;26.00;80.10
40756;DHT22;26461;45.630;9.418;2022-09-09T19:26:34;26.00;81.20
40756;DHT22;26461;45.630;9.418;2022-09-09T19:29:46;25.90;81.90
40756;DHT22;26461;45.630;9.418;2022-09-09T19:32:52;25.80;82.20
40756;DHT22;26461;45.630;9.418;2022-09-09T19:36:06;25.80;82.80
40756;DHT22;26461;45.630;9.418;2022-09-09T19:39:18;25.80;83.90
40756;DHT22;26461;45.630;9.418;2022-09-09T19:42:28;25.70;84.60
40756;DHT22;26461;45.630;9.418;2022-09-09T19:45:40;25.70;85.10
40756;DHT22;26461;45.630;9.418;2022-09-09T19:48:50;25.60;85.20
40756;DHT22;26461;45.630;9.418;2022-09-09T19:51:59;25.60;85.70
40756;DHT22;26461;45.630;9.418;2022-09-09T19:55:11;25.60;86.00
40756;DHT22;26461;45.630;9.418;2022-09-09T19:58:21;25.50;86.50
40756;DHT22;26461;45.630;9.418;2022-09-09T20:01:28;25.50;86.80
40756;DHT22;26461;45.630;9.418;2022-09-09T20:04:39;25.40;87.10
40756;DHT22;26461;45.630;9.418;2022-09-09T20:07:50;25.30;88.00
40756;DHT22;26461;45.630;9.418;2022-09-09T20:11:03;25.20;87.50
40756;DHT22;26461;45.630;9.418;2022-09-09T20:14:10;25.20;87.60
40756;DHT22;26461;45.630;9.418;2022-09-09T20:17:22;25.10;87.80
40756;DHT22;26461;45.630;9.418;2022-09-09T20:20:33;25.00;88.00
40756;DHT22;26461;45.630;9.418;2022-09-09T20:23:44;25.00;88.30
40756;DHT22;26461;45.630;9.418;2022-09-09T20:26:55;24.90;88.50
40756;DHT22;26461;45.630;9.418;2022-09-09T20:30:07;24.90;88.90
40756;DHT22;26461;45.630;9.418;2022-09-09T20:33:17;24.80;89.20
40756;DHT22;26461;45.630;9.418;2022-09-09T20:36:30;24.70;89.40
40756;DHT22;26461;45.630;9.418;2022-09-09T20:39:41;24.70;90.10
40756;DHT22;26461;45.630;9.418;2022-09-09T20:42:50;24.60;90.20
40756;DHT22;26461;45.630;9.418;2022-09-09T20:46:02;24.50;90.30
40756;DHT22;26461;45.630;9.418;2022-09-09T20:49:13;24.40;90.60
40756;DHT22;26461;45.630;9.418;2022-09-09T20:52:26;24.40;90.70
40756;DHT22;26461;45.630;9.418;2022-09-09T20:55:37;24.40;90.90
40756;DHT22;26461;45.630;9.418;2022-09-09T20:58:47;24.30;90.90
40756;DHT22;26461;45.630;9.418;2022-09-09T21:01:57;24.20;90.90
40756;DHT22;26461;45.630;9.418;2022-09-09T21:05:06;24.20;91.00
40756;DHT22;26461;45.630;9.418;2022-09-09T21:08:11;24.20;91.20
40756;DHT22;26461;45.630;9.418;2022-09-09T21:11:24;24.20;91.20
40756;DHT22;26461;45.630;9.418;2022-09-09T21:14:34;24.20;91.20
40756;DHT22;26461;45.630;9.418;2022-09-09T21:17:46;24.20;91.30
40756;DHT22;26461;45.630;9.418;2022-09-09T21:20:51;24.20;91.40
40756;DHT22;26461;45.630;9.418;2022-09-09T21:23:57;24.20;91.40
40756;DHT22;26461;45.630;9.418;2022-09-09T21:27:10;24.20;91.40
40756;DHT22;26461;45.630;9.418;2022-09-09T21:30:21;24.20;91.50
40756;DHT22;26461;45.630;9.418;2022-09-09T21:33:32;24.20;91.50
40756;DHT22;26461;45.630;9.418;2022-09-09T21:36:45;24.20;91.40
40756;DHT22;26461;45.630;9.418;2022-09-09T21:39:49;24.20;91.40
40756;DHT22;26461;45.630;9.418;2022-09-09T21:42:59;24.30;91.40
40756;DHT22;26461;45.630;9.418;2022-09-09T21:46:14;24.20;91.40
40756;DHT22;26461;45.630;9.418;2022-09-09T21:49:25;24.30;91.50
40756;DHT22;26461;45.630;9.418;2022-09-09T21:52:35;24.30;91.40
40756;DHT22;26461;45.630;9.418;2022-09-09T21:55:47;24.20;91.50
40756;DHT22;26461;45.630;9.418;2022-09-09T21:58:58;24.00;92.40
40756;DHT22;26461;45.630;9.418;2022-09-09T22:02:12;23.70;93.20
40756;DHT22;26461;45.630;9.418;2022-09-09T22:05:26;23.40;94.60
40756;DHT22;26461;45.630;9.418;2022-09-09T22:08:39;23.20;96.50
40756;DHT22;26461;45.630;9.418;2022-09-09T22:12:11;23.10;96.00
40756;DHT22;26461;45.630;9.418;2022-09-09T22:15:45;22.90;95.00
40756;DHT22;26461;45.630;9.418;2022-09-09T22:24:07;22.70;95.80